sensor_id;sensor_type;location;lat;lon;timestamp;P1;durP1;ratioP1;P2;durP2;ratioP2
10537;SDS011;5317;49.048;8.468;2023-02-28T00:02:04;4.28;;;3.35;;
10537;SDS011;5317;49.048;8.468;2023-02-28T00:04:31;4.78;;;3.17;;
10537;SDS011;5317;49.048;8.468;2023-02-28T00:06:58;3.95;;;3.08;;
10537;SDS011;5317;49.048;8.468;2023-02-28T00:09:26;4.05;;;3.08;;
10537;SDS011;5317;49.048;8.468;2023-02-28T00:11:53;4.57;;;3.17;;
10537;SDS011;5317;49.048;8.468;2023-02-28T00:14:20;3.70;;;3.30;;
10537;SDS011;5317;49.048;8.468;2023-02-28T00:16:47;3.13;;;2.83;;
10537;SDS011;5317;49.048;8.468;2023-02-28T00:19:13;4.25;;;2.88;;
10537;SDS011;5317;49.048;8.468;2023-02-28T00:21:40;3.28;;;2.97;;
10537;SDS011;5317;49.048;8.468;2023-02-28T00:24:08;4.07;;;3.35;;
10537;SDS011;5317;49.048;8.468;2023-02-28T00:26:37;4.50;;;3.22;;
10537;SDS011;5317;49.048;8.468;2023-02-28T00:29:03;4.60;;;3.05;;
10537;SDS011;5317;49.048;8.468;2023-02-28T00:31:30;4.45;;;3.58;;
10537;SDS011;5317;49.048;8.468;2023-02-28T00:33:57;4.10;;;3.42;;
10537;SDS011;5317;49.048;8.468;2023-02-28T00:36:24;3.50;;;3.10;;
10537;SDS011;5317;49.048;8.468;2023-02-28T00:38:51;3.15;;;2.85;;
10537;SDS011;5317;49.048;8.468;2023-02-28T00:41:18;5.22;;;3.00;;
10537;SDS011;5317;49.048;8.468;2023-02-28T00:43:46;3.72;;;3.10;;
10537;SDS011;5317;49.048;8.468;2023-02-28T00:46:13;4.25;;;3.30;;
10537;SDS011;5317;49.048;8.468;2023-02-28T00:48:40;4.30;;;2.85;;
10537;SDS011;5317;49.048;8.468;2023-02-28T00:51:07;3.55;;;3.00;;
10537;SDS011;5317;49.048;8.468;2023-02-28T00:53:34;3.40;;;2.88;;
10537;SDS011;5317;49.048;8.468;2023-02-28T00:56:00;3.35;;;3.05;;
10537;SDS011;5317;49.048;8.468;2023-02-28T00:58:27;3.97;;;3.15;;
10537;SDS011;5317;49.048;8.468;2023-02-28T01:00:56;4.78;;;2.83;;
10537;SDS011;5317;49.048;8.468;2023-02-28T01:03:22;3.50;;;3.20;;
10537;SDS011;5317;49.048;8.468;2023-02-28T01:05:50;3.63;;;3.00;;
10537;SDS011;5317;49.048;8.468;2023-02-28T01:08:18;4.07;;;3.10;;
10537;SDS011;5317;49.048;8.468;2023-02-28T01:10:44;3.70;;;3.22;;
10537;SDS011;5317;49.048;8.468;2023-02-28T01:13:11;3.22;;;2.92;;
10537;SDS011;5317;49.048;8.468;2023-02-28T01:15:38;3.60;;;3.10;;
10537;SDS011;5317;49.048;8.468;2023-02-28T01:18:10;4.32;;;3.38;;
10537;SDS011;5317;49.048;8.468;2023-02-28T01:20:37;4.72;;;3.08;;
10537;SDS011;5317;49.048;8.468;2023-02-28T01:23:04;4.22;;;3.20;;
10537;SDS011;5317;49.048;8.468;2023-02-28T01:25:33;3.25;;;2.95;;
10537;SDS011;5317;49.048;8.468;2023-02-28T01:28:01;3.28;;;2.97;;
10537;SDS011;5317;49.048;8.468;2023-02-28T01:30:28;3.50;;;3.20;;
10537;SDS011;5317;49.048;8.468;2023-02-28T01:32:55;4.70;;;3.25;;
10537;SDS011;5317;49.048;8.468;2023-02-28T01:35:23;3.05;;;2.75;;
10537;SDS011;5317;49.048;8.468;2023-02-28T01:37:50;4.35;;;2.95;;
10537;SDS011;5317;49.048;8.468;2023-02-28T01:40:17;5.25;;;3.15;;
10537;SDS011;5317;49.048;8.468;2023-02-28T01:42:44;3.08;;;2.88;;
10537;SDS011;5317;49.048;8.468;2023-02-28T01:45:18;3.78;;;3.10;;
10537;SDS011;5317;49.048;8.468;2023-02-28T01:47:52;3.50;;;3.20;;
10537;SDS011;5317;49.048;8.468;2023-02-28T01:50:24;3.30;;;3.00;;
10537;SDS011;5317;49.048;8.468;2023-02-28T01:52:54;4.15;;;3.45;;
10537;SDS011;5317;49.048;8.468;2023-02-28T01:55:23;4.00;;;3.10;;
10537;SDS011;5317;49.048;8.468;2023-02-28T01:57:54;4.15;;;2.90;;
10537;SDS011;5317;49.048;8.468;2023-02-28T02:00:23;3.63;;;3.20;;
10537;SDS011;5317;49.048;8.468;2023-02-28T02:02:54;4.53;;;3.10;;
10537;SDS011;5317;49.048;8.468;2023-02-28T02:05:25;4.18;;;3.28;;
10537;SDS011;5317;49.048;8.468;2023-02-28T02:07:56;4.82;;;3.10;;
10537;SDS011;5317;49.048;8.468;2023-02-28T02:10:29;3.47;;;3.17;;
10537;SDS011;5317;49.048;8.468;2023-02-28T02:15:57;3.80;;;3.10;;
10537;SDS011;5317;49.048;8.468;2023-02-28T02:18:31;4.65;;;3.35;;
10537;SDS011;5317;49.048;8.468;2023-02-28T02:27:29;3.97;;;3.10;;
10537;SDS011;5317;49.048;8.468;2023-02-28T02:30:29;4.53;;;3.08;;
10537;SDS011;5317;49.048;8.468;2023-02-28T02:33:18;5.18;;;3.50;;
10537;SDS011;5317;49.048;8.468;2023-02-28T02:36:07;5.78;;;3.67;;
10537;SDS011;5317;49.048;8.468;2023-02-28T02:38:38;4.20;;;3.35;;
10537;SDS011;5317;49.048;8.468;2023-02-28T02:41:16;3.90;;;3.50;;
10537;SDS011;5317;49.048;8.468;2023-02-28T02:43:49;4.47;;;2.78;;
10537;SDS011;5317;49.048;8.468;2023-02-28T02:46:19;3.60;;;3.30;;
10537;SDS011;5317;49.048;8.468;2023-02-28T02:48:51;3.70;;;3.25;;
10537;SDS011;5317;49.048;8.468;2023-02-28T02:51:23;4.13;;;3.38;;
10537;SDS011;5317;49.048;8.468;2023-02-28T02:53:52;4.90;;;3.95;;
10537;SDS011;5317;49.048;8.468;2023-02-28T02:56:25;4.45;;;3.15;;
10537;SDS011;5317;49.048;8.468;2023-02-28T02:58:55;3.45;;;3.15;;
10537;SDS011;5317;49.048;8.468;2023-02-28T03:01:27;3.70;;;3.30;;
10537;SDS011;5317;49.048;8.468;2023-02-28T03:03:56;4.10;;;3.40;;
10537;SDS011;5317;49.048;8.468;2023-02-28T03:06:28;4.20;;;3.60;;
10537;SDS011;5317;49.048;8.468;2023-02-28T03:08:55;4.60;;;3.40;;
10537;SDS011;5317;49.048;8.468;2023-02-28T03:11:22;4.40;;;3.88;;
10537;SDS011;5317;49.048;8.468;2023-02-28T03:13:52;4.97;;;3.53;;
10537;SDS011;5317;49.048;8.468;2023-02-28T03:16:29;4.03;;;3.60;;
10537;SDS011;5317;49.048;8.468;2023-02-28T03:19:09;4.85;;;3.60;;
10537;SDS011;5317;49.048;8.468;2023-02-28T03:21:56;5.75;;;3.75;;
10537;SDS011;5317;49.048;8.468;2023-02-28T03:24:32;3.90;;;3.38;;
10537;SDS011;5317;49.048;8.468;2023-02-28T03:27:04;3.58;;;3.22;;
10537;SDS011;5317;49.048;8.468;2023-02-28T03:29:35;3.95;;;3.55;;
10537;SDS011;5317;49.048;8.468;2023-02-28T03:32:05;4.57;;;3.97;;
10537;SDS011;5317;49.048;8.468;2023-02-28T03:34:39;4.22;;;3.55;;
10537;SDS011;5317;49.048;8.468;2023-02-28T03:37:11;4.20;;;3.78;;
10537;SDS011;5317;49.048;8.468;2023-02-28T03:39:43;4.18;;;3.45;;
10537;SDS011;5317;49.048;8.468;2023-02-28T03:42:14;4.47;;;3.30;;
10537;SDS011;5317;49.048;8.468;2023-02-28T03:44:44;4.25;;;3.60;;
10537;SDS011;5317;49.048;8.468;2023-02-28T03:47:16;4.05;;;3.65;;
10537;SDS011;5317;49.048;8.468;2023-02-28T03:49:46;4.68;;;3.60;;
10537;SDS011;5317;49.048;8.468;2023-02-28T03:52:18;4.55;;;3.95;;
10537;SDS011;5317;49.048;8.468;2023-02-28T03:54:49;6.75;;;4.03;;
10537;SDS011;5317;49.048;8.468;2023-02-28T03:57:21;3.95;;;3.45;;
10537;SDS011;5317;49.048;8.468;2023-02-28T03:59:54;4.75;;;3.90;;
10537;SDS011;5317;49.048;8.468;2023-02-28T04:02:25;5.78;;;3.63;;
10537;SDS011;5317;49.048;8.468;2023-02-28T04:04:53;5.13;;;3.15;;
10537;SDS011;5317;49.048;8.468;2023-02-28T04:07:21;4.22;;;3.83;;
10537;SDS011;5317;49.048;8.468;2023-02-28T04:09:48;3.92;;;3.53;;
10537;SDS011;5317;49.048;8.468;2023-02-28T04:12:15;4.22;;;3.30;;
10537;SDS011;5317;49.048;8.468;2023-02-28T04:14:42;5.43;;;4.38;;
10537;SDS011;5317;49.048;8.468;2023-02-28T04:17:09;6.13;;;4.00;;
10537;SDS011;5317;49.048;8.468;2023-02-28T04:19:36;4.43;;;3.60;;
10537;SDS011;5317;49.048;8.468;2023-02-28T04:22:03;4.05;;;3.60;;
10537;SDS011;5317;49.048;8.468;2023-02-28T04:24:31;3.90;;;3.42;;
10537;SDS011;5317;49.048;8.468;2023-02-28T04:26:58;4.72;;;3.90;;
10537;SDS011;5317;49.048;8.468;2023-02-28T04:29:26;4.25;;;3.42;;
10537;SDS011;5317;49.048;8.468;2023-02-28T04:31:53;4.45;;;3.80;;
10537;SDS011;5317;49.048;8.468;2023-02-28T04:34:25;4.60;;;3.47;;
10537;SDS011;5317;49.048;8.468;2023-02-28T04:36:52;5.28;;;3.90;;
10537;SDS011;5317;49.048;8.468;2023-02-28T04:39:20;5.18;;;3.90;;
10537;SDS011;5317;49.048;8.468;2023-02-28T04:41:49;5.38;;;3.85;;
10537;SDS011;5317;49.048;8.468;2023-02-28T04:44:16;5.53;;;3.88;;
10537;SDS011;5317;49.048;8.468;2023-02-28T04:46:43;4.05;;;3.50;;
10537;SDS011;5317;49.048;8.468;2023-02-28T04:49:10;4.18;;;3.53;;
10537;SDS011;5317;49.048;8.468;2023-02-28T04:51:38;5.43;;;4.05;;
10537;SDS011;5317;49.048;8.468;2023-02-28T04:54:05;4.28;;;3.53;;
10537;SDS011;5317;49.048;8.468;2023-02-28T04:56:32;6.47;;;4.03;;
10537;SDS011;5317;49.048;8.468;2023-02-28T04:59:01;4.10;;;3.70;;
10537;SDS011;5317;49.048;8.468;2023-02-28T05:01:28;4.00;;;3.60;;
10537;SDS011;5317;49.048;8.468;2023-02-28T05:03:58;5.15;;;3.60;;
10537;SDS011;5317;49.048;8.468;2023-02-28T05:06:26;5.35;;;3.90;;
10537;SDS011;5317;49.048;8.468;2023-02-28T05:08:55;4.65;;;3.83;;
10537;SDS011;5317;49.048;8.468;2023-02-28T05:11:23;5.00;;;4.20;;
10537;SDS011;5317;49.048;8.468;2023-02-28T05:13:51;5.15;;;4.22;;
10537;SDS011;5317;49.048;8.468;2023-02-28T05:16:21;4.32;;;3.72;;
10537;SDS011;5317;49.048;8.468;2023-02-28T05:18:48;4.78;;;4.20;;
10537;SDS011;5317;49.048;8.468;2023-02-28T05:21:23;5.57;;;4.68;;
10537;SDS011;5317;49.048;8.468;2023-02-28T05:23:52;5.00;;;3.97;;
10537;SDS011;5317;49.048;8.468;2023-02-28T05:26:19;5.03;;;4.15;;
10537;SDS011;5317;49.048;8.468;2023-02-28T05:28:46;4.22;;;3.83;;
10537;SDS011;5317;49.048;8.468;2023-02-28T05:31:13;4.68;;;4.28;;
10537;SDS011;5317;49.048;8.468;2023-02-28T05:33:41;4.50;;;4.10;;
10537;SDS011;5317;49.048;8.468;2023-02-28T05:36:08;4.22;;;3.80;;
10537;SDS011;5317;49.048;8.468;2023-02-28T05:38:35;4.53;;;3.95;;
10537;SDS011;5317;49.048;8.468;2023-02-28T05:41:04;4.70;;;3.80;;
10537;SDS011;5317;49.048;8.468;2023-02-28T05:43:32;5.88;;;4.45;;
10537;SDS011;5317;49.048;8.468;2023-02-28T05:45:59;4.97;;;4.30;;
10537;SDS011;5317;49.048;8.468;2023-02-28T05:48:28;5.60;;;4.68;;
10537;SDS011;5317;49.048;8.468;2023-02-28T05:50:57;6.25;;;4.50;;
10537;SDS011;5317;49.048;8.468;2023-02-28T05:53:24;4.45;;;4.05;;
10537;SDS011;5317;49.048;8.468;2023-02-28T05:55:52;5.68;;;4.80;;
10537;SDS011;5317;49.048;8.468;2023-02-28T05:58:19;4.95;;;4.25;;
10537;SDS011;5317;49.048;8.468;2023-02-28T06:00:45;6.22;;;4.07;;
10537;SDS011;5317;49.048;8.468;2023-02-28T06:03:12;5.45;;;4.20;;
10537;SDS011;5317;49.048;8.468;2023-02-28T06:05:39;4.50;;;4.10;;
10537;SDS011;5317;49.048;8.468;2023-02-28T06:08:07;5.03;;;4.15;;
10537;SDS011;5317;49.048;8.468;2023-02-28T06:10:34;6.13;;;4.90;;
10537;SDS011;5317;49.048;8.468;2023-02-28T06:13:01;5.15;;;4.53;;
10537;SDS011;5317;49.048;8.468;2023-02-28T06:15:28;5.32;;;4.40;;
10537;SDS011;5317;49.048;8.468;2023-02-28T06:17:56;5.72;;;4.28;;
10537;SDS011;5317;49.048;8.468;2023-02-28T06:20:23;4.95;;;4.03;;
10537;SDS011;5317;49.048;8.468;2023-02-28T06:22:54;5.55;;;4.63;;
10537;SDS011;5317;49.048;8.468;2023-02-28T06:25:22;5.35;;;4.50;;
10537;SDS011;5317;49.048;8.468;2023-02-28T06:27:49;4.68;;;4.28;;
10537;SDS011;5317;49.048;8.468;2023-02-28T06:30:16;6.22;;;4.95;;
10537;SDS011;5317;49.048;8.468;2023-02-28T06:32:43;6.35;;;4.38;;
10537;SDS011;5317;49.048;8.468;2023-02-28T06:35:10;5.18;;;4.68;;
10537;SDS011;5317;49.048;8.468;2023-02-28T06:37:38;7.50;;;5.15;;
10537;SDS011;5317;49.048;8.468;2023-02-28T06:40:05;4.82;;;4.30;;
10537;SDS011;5317;49.048;8.468;2023-02-28T06:42:35;5.40;;;4.72;;
10537;SDS011;5317;49.048;8.468;2023-02-28T06:45:02;5.22;;;4.40;;
10537;SDS011;5317;49.048;8.468;2023-02-28T06:47:34;5.97;;;4.72;;
10537;SDS011;5317;49.048;8.468;2023-02-28T06:50:01;6.03;;;4.72;;
10537;SDS011;5317;49.048;8.468;2023-02-28T06:52:28;6.43;;;4.90;;
10537;SDS011;5317;49.048;8.468;2023-02-28T06:54:55;5.15;;;4.57;;
10537;SDS011;5317;49.048;8.468;2023-02-28T06:57:27;5.25;;;4.43;;
10537;SDS011;5317;49.048;8.468;2023-02-28T06:59:57;5.13;;;4.50;;
10537;SDS011;5317;49.048;8.468;2023-02-28T07:02:24;5.75;;;4.80;;
10537;SDS011;5317;49.048;8.468;2023-02-28T07:04:51;7.07;;;5.18;;
10537;SDS011;5317;49.048;8.468;2023-02-28T07:07:18;7.50;;;4.60;;
10537;SDS011;5317;49.048;8.468;2023-02-28T07:09:46;5.13;;;4.63;;
10537;SDS011;5317;49.048;8.468;2023-02-28T07:12:13;5.35;;;4.63;;
10537;SDS011;5317;49.048;8.468;2023-02-28T07:14:40;5.82;;;4.90;;
10537;SDS011;5317;49.048;8.468;2023-02-28T07:17:08;4.88;;;3.90;;
10537;SDS011;5317;49.048;8.468;2023-02-28T07:19:37;5.82;;;4.85;;
10537;SDS011;5317;49.048;8.468;2023-02-28T07:22:05;7.32;;;5.22;;
10537;SDS011;5317;49.048;8.468;2023-02-28T07:24:32;5.03;;;4.53;;
10537;SDS011;5317;49.048;8.468;2023-02-28T07:26:59;5.40;;;4.90;;
10537;SDS011;5317;49.048;8.468;2023-02-28T07:29:27;5.00;;;4.50;;
10537;SDS011;5317;49.048;8.468;2023-02-28T07:31:54;5.75;;;4.45;;
10537;SDS011;5317;49.048;8.468;2023-02-28T07:34:22;5.65;;;4.65;;
10537;SDS011;5317;49.048;8.468;2023-02-28T07:36:49;5.28;;;4.75;;
10537;SDS011;5317;49.048;8.468;2023-02-28T07:39:18;5.97;;;4.38;;
10537;SDS011;5317;49.048;8.468;2023-02-28T07:41:45;6.68;;;5.25;;
10537;SDS011;5317;49.048;8.468;2023-02-28T07:44:12;6.28;;;5.30;;
10537;SDS011;5317;49.048;8.468;2023-02-28T07:46:39;7.80;;;5.65;;
10537;SDS011;5317;49.048;8.468;2023-02-28T07:49:06;5.07;;;4.57;;
10537;SDS011;5317;49.048;8.468;2023-02-28T07:51:35;6.22;;;5.07;;
10537;SDS011;5317;49.048;8.468;2023-02-28T07:54:02;5.80;;;5.20;;
10537;SDS011;5317;49.048;8.468;2023-02-28T07:56:29;5.78;;;4.72;;
10537;SDS011;5317;49.048;8.468;2023-02-28T07:58:56;5.25;;;4.75;;
10537;SDS011;5317;49.048;8.468;2023-02-28T08:01:24;6.68;;;5.30;;
10537;SDS011;5317;49.048;8.468;2023-02-28T08:03:51;6.40;;;5.20;;
10537;SDS011;5317;49.048;8.468;2023-02-28T08:06:21;6.75;;;5.20;;
10537;SDS011;5317;49.048;8.468;2023-02-28T08:08:50;5.28;;;4.68;;
10537;SDS011;5317;49.048;8.468;2023-02-28T08:11:19;6.88;;;4.95;;
10537;SDS011;5317;49.048;8.468;2023-02-28T08:13:47;6.25;;;5.50;;
10537;SDS011;5317;49.048;8.468;2023-02-28T08:16:14;6.97;;;5.25;;
10537;SDS011;5317;49.048;8.468;2023-02-28T08:18:46;6.05;;;5.15;;
10537;SDS011;5317;49.048;8.468;2023-02-28T08:21:13;7.18;;;4.85;;
10537;SDS011;5317;49.048;8.468;2023-02-28T08:23:39;6.07;;;5.25;;
10537;SDS011;5317;49.048;8.468;2023-02-28T08:26:08;6.33;;;5.17;;
10537;SDS011;5317;49.048;8.468;2023-02-28T08:28:34;5.35;;;4.80;;
10537;SDS011;5317;49.048;8.468;2023-02-28T08:31:05;8.00;;;5.43;;
10537;SDS011;5317;49.048;8.468;2023-02-28T08:33:33;5.97;;;5.00;;
10537;SDS011;5317;49.048;8.468;2023-02-28T08:36:00;5.23;;;4.73;;
10537;SDS011;5317;49.048;8.468;2023-02-28T08:38:27;5.75;;;5.18;;
10537;SDS011;5317;49.048;8.468;2023-02-28T08:40:57;5.40;;;4.85;;
10537;SDS011;5317;49.048;8.468;2023-02-28T08:43:26;6.38;;;4.75;;
10537;SDS011;5317;49.048;8.468;2023-02-28T08:45:53;5.90;;;5.30;;
10537;SDS011;5317;49.048;8.468;2023-02-28T08:48:21;6.37;;;5.57;;
10537;SDS011;5317;49.048;8.468;2023-02-28T08:50:54;9.53;;;5.63;;
10537;SDS011;5317;49.048;8.468;2023-02-28T08:53:22;6.00;;;5.27;;
10537;SDS011;5317;49.048;8.468;2023-02-28T08:55:55;5.93;;;5.33;;
10537;SDS011;5317;49.048;8.468;2023-02-28T08:58:23;7.20;;;5.80;;
10537;SDS011;5317;49.048;8.468;2023-02-28T09:00:51;7.90;;;5.50;;
10537;SDS011;5317;49.048;8.468;2023-02-28T09:03:18;6.03;;;5.35;;
10537;SDS011;5317;49.048;8.468;2023-02-28T09:05:51;7.07;;;5.53;;
10537;SDS011;5317;49.048;8.468;2023-02-28T09:08:19;6.63;;;5.60;;
10537;SDS011;5317;49.048;8.468;2023-02-28T09:10:46;6.40;;;5.70;;
10537;SDS011;5317;49.048;8.468;2023-02-28T09:13:13;6.67;;;5.90;;
10537;SDS011;5317;49.048;8.468;2023-02-28T09:15:40;6.90;;;5.80;;
10537;SDS011;5317;49.048;8.468;2023-02-28T09:18:09;7.23;;;5.73;;
10537;SDS011;5317;49.048;8.468;2023-02-28T09:20:37;6.30;;;5.37;;
10537;SDS011;5317;49.048;8.468;2023-02-28T09:23:04;8.23;;;6.03;;
10537;SDS011;5317;49.048;8.468;2023-02-28T09:25:31;8.33;;;5.90;;
10537;SDS011;5317;49.048;8.468;2023-02-28T09:27:58;7.83;;;6.00;;
10537;SDS011;5317;49.048;8.468;2023-02-28T09:30:25;6.90;;;5.87;;
10537;SDS011;5317;49.048;8.468;2023-02-28T09:32:52;6.53;;;5.80;;
10537;SDS011;5317;49.048;8.468;2023-02-28T09:35:21;7.07;;;5.90;;
10537;SDS011;5317;49.048;8.468;2023-02-28T09:37:51;7.00;;;5.40;;
10537;SDS011;5317;49.048;8.468;2023-02-28T09:40:19;6.30;;;5.70;;
10537;SDS011;5317;49.048;8.468;2023-02-28T09:42:49;6.57;;;5.83;;
10537;SDS011;5317;49.048;8.468;2023-02-28T09:45:21;7.20;;;6.17;;
10537;SDS011;5317;49.048;8.468;2023-02-28T09:47:51;6.97;;;5.77;;
10537;SDS011;5317;49.048;8.468;2023-02-28T09:50:27;6.73;;;5.93;;
10537;SDS011;5317;49.048;8.468;2023-02-28T09:52:58;8.07;;;5.93;;
10537;SDS011;5317;49.048;8.468;2023-02-28T09:55:26;6.83;;;5.53;;
10537;SDS011;5317;49.048;8.468;2023-02-28T09:57:56;6.77;;;5.77;;
10537;SDS011;5317;49.048;8.468;2023-02-28T10:00:27;6.50;;;5.80;;
10537;SDS011;5317;49.048;8.468;2023-02-28T10:03:02;7.13;;;6.20;;
10537;SDS011;5317;49.048;8.468;2023-02-28T10:05:41;6.53;;;5.47;;
10537;SDS011;5317;49.048;8.468;2023-02-28T10:08:14;6.90;;;6.20;;
10537;SDS011;5317;49.048;8.468;2023-02-28T10:10:43;7.17;;;5.90;;
10537;SDS011;5317;49.048;8.468;2023-02-28T10:13:13;7.33;;;6.57;;
10537;SDS011;5317;49.048;8.468;2023-02-28T10:15:46;7.10;;;5.87;;
10537;SDS011;5317;49.048;8.468;2023-02-28T10:18:19;6.97;;;6.20;;
10537;SDS011;5317;49.048;8.468;2023-02-28T10:20:52;8.50;;;6.40;;
10537;SDS011;5317;49.048;8.468;2023-02-28T10:23:21;7.20;;;6.50;;
10537;SDS011;5317;49.048;8.468;2023-02-28T10:25:53;6.90;;;6.17;;
10537;SDS011;5317;49.048;8.468;2023-02-28T10:28:24;7.87;;;6.03;;
10537;SDS011;5317;49.048;8.468;2023-02-28T10:30:53;7.47;;;6.53;;
10537;SDS011;5317;49.048;8.468;2023-02-28T10:33:22;6.60;;;5.60;;
10537;SDS011;5317;49.048;8.468;2023-02-28T10:35:51;7.10;;;6.40;;
10537;SDS011;5317;49.048;8.468;2023-02-28T10:38:20;7.30;;;6.53;;
10537;SDS011;5317;49.048;8.468;2023-02-28T10:40:48;6.30;;;5.70;;
10537;SDS011;5317;49.048;8.468;2023-02-28T10:43:20;7.00;;;6.00;;
10537;SDS011;5317;49.048;8.468;2023-02-28T10:45:53;8.03;;;6.60;;
10537;SDS011;5317;49.048;8.468;2023-02-28T10:48:26;7.37;;;6.67;;
10537;SDS011;5317;49.048;8.468;2023-02-28T10:50:58;6.90;;;6.13;;
10537;SDS011;5317;49.048;8.468;2023-02-28T10:53:30;7.20;;;6.50;;
10537;SDS011;5317;49.048;8.468;2023-02-28T10:55:59;8.87;;;6.30;;
10537;SDS011;5317;49.048;8.468;2023-02-28T10:58:28;7.73;;;6.80;;
10537;SDS011;5317;49.048;8.468;2023-02-28T11:00:57;6.90;;;6.23;;
10537;SDS011;5317;49.048;8.468;2023-02-28T11:03:29;8.87;;;6.73;;
10537;SDS011;5317;49.048;8.468;2023-02-28T11:06:04;7.53;;;6.00;;
10537;SDS011;5317;49.048;8.468;2023-02-28T11:08:32;7.00;;;6.30;;
10537;SDS011;5317;49.048;8.468;2023-02-28T11:11:02;9.60;;;6.50;;
10537;SDS011;5317;49.048;8.468;2023-02-28T11:13:32;7.73;;;6.97;;
10537;SDS011;5317;49.048;8.468;2023-02-28T11:16:02;8.27;;;6.80;;
10537;SDS011;5317;49.048;8.468;2023-02-28T11:18:32;9.73;;;7.23;;
10537;SDS011;5317;49.048;8.468;2023-02-28T11:21:05;7.47;;;6.77;;
10537;SDS011;5317;49.048;8.468;2023-02-28T11:23:34;8.03;;;6.03;;
10537;SDS011;5317;49.048;8.468;2023-02-28T11:26:03;7.43;;;6.60;;
10537;SDS011;5317;49.048;8.468;2023-02-28T11:28:35;9.00;;;6.93;;
10537;SDS011;5317;49.048;8.468;2023-02-28T11:31:05;7.63;;;6.63;;
10537;SDS011;5317;49.048;8.468;2023-02-28T11:33:41;7.33;;;6.57;;
10537;SDS011;5317;49.048;8.468;2023-02-28T11:36:12;7.20;;;6.30;;
10537;SDS011;5317;49.048;8.468;2023-02-28T11:38:42;8.77;;;6.80;;
10537;SDS011;5317;49.048;8.468;2023-02-28T11:41:13;7.30;;;6.60;;
10537;SDS011;5317;49.048;8.468;2023-02-28T11:43:59;6.90;;;6.20;;
10537;SDS011;5317;49.048;8.468;2023-02-28T11:46:47;8.43;;;6.87;;
10537;SDS011;5317;49.048;8.468;2023-02-28T11:49:30;8.17;;;6.07;;
10537;SDS011;5317;49.048;8.468;2023-02-28T11:52:05;8.23;;;7.20;;
10537;SDS011;5317;49.048;8.468;2023-02-28T11:57:48;7.17;;;6.47;;
10537;SDS011;5317;49.048;8.468;2023-02-28T12:00:33;8.00;;;6.80;;
10537;SDS011;5317;49.048;8.468;2023-02-28T12:03:13;9.10;;;6.53;;
10537;SDS011;5317;49.048;8.468;2023-02-28T12:05:50;7.40;;;6.63;;
10537;SDS011;5317;49.048;8.468;2023-02-28T12:08:30;7.20;;;6.50;;
10537;SDS011;5317;49.048;8.468;2023-02-28T12:11:11;7.03;;;6.33;;
10537;SDS011;5317;49.048;8.468;2023-02-28T12:13:52;7.10;;;6.40;;
10537;SDS011;5317;49.048;8.468;2023-02-28T12:16:32;8.23;;;7.40;;
10537;SDS011;5317;49.048;8.468;2023-02-28T12:19:13;7.73;;;6.93;;
10537;SDS011;5317;49.048;8.468;2023-02-28T12:21:48;7.43;;;6.67;;
10537;SDS011;5317;49.048;8.468;2023-02-28T12:24:45;8.83;;;6.67;;
10537;SDS011;5317;49.048;8.468;2023-02-28T12:27:25;7.87;;;7.07;;
10537;SDS011;5317;49.048;8.468;2023-02-28T12:29:56;7.07;;;6.37;;
10537;SDS011;5317;49.048;8.468;2023-02-28T12:32:30;7.67;;;6.87;;
10537;SDS011;5317;49.048;8.468;2023-02-28T12:35:01;7.83;;;7.10;;
10537;SDS011;5317;49.048;8.468;2023-02-28T12:37:33;6.40;;;5.80;;
10537;SDS011;5317;49.048;8.468;2023-02-28T12:40:08;7.60;;;6.87;;
10537;SDS011;5317;49.048;8.468;2023-02-28T12:42:42;7.87;;;6.77;;
10537;SDS011;5317;49.048;8.468;2023-02-28T12:45:13;7.10;;;6.40;;
10537;SDS011;5317;49.048;8.468;2023-02-28T12:47:44;7.53;;;6.63;;
10537;SDS011;5317;49.048;8.468;2023-02-28T12:50:12;7.90;;;7.10;;
10537;SDS011;5317;49.048;8.468;2023-02-28T12:52:41;7.27;;;6.57;;
10537;SDS011;5317;49.048;8.468;2023-02-28T12:55:21;7.43;;;6.50;;
10537;SDS011;5317;49.048;8.468;2023-02-28T12:57:56;7.40;;;6.70;;
10537;SDS011;5317;49.048;8.468;2023-02-28T13:00:29;6.73;;;6.03;;
10537;SDS011;5317;49.048;8.468;2023-02-28T13:03:09;7.43;;;6.53;;
10537;SDS011;5317;49.048;8.468;2023-02-28T13:08:59;6.80;;;6.20;;
10537;SDS011;5317;49.048;8.468;2023-02-28T13:11:31;8.03;;;7.23;;
10537;SDS011;5317;49.048;8.468;2023-02-28T13:14:05;8.73;;;6.43;;
10537;SDS011;5317;49.048;8.468;2023-02-28T13:16:47;7.27;;;6.57;;
10537;SDS011;5317;49.048;8.468;2023-02-28T13:19:28;7.83;;;6.57;;
10537;SDS011;5317;49.048;8.468;2023-02-28T13:21:57;7.70;;;6.77;;
10537;SDS011;5317;49.048;8.468;2023-02-28T13:24:41;7.77;;;6.97;;
10537;SDS011;5317;49.048;8.468;2023-02-28T13:27:23;10.83;;;8.67;;
10537;SDS011;5317;49.048;8.468;2023-02-28T13:29:58;7.63;;;6.87;;
10537;SDS011;5317;49.048;8.468;2023-02-28T13:32:31;7.73;;;7.03;;
10537;SDS011;5317;49.048;8.468;2023-02-28T13:44:22;9.30;;;7.00;;
10537;SDS011;5317;49.048;8.468;2023-02-28T13:49:51;8.53;;;7.50;;
10537;SDS011;5317;49.048;8.468;2023-02-28T13:52:20;8.27;;;6.80;;
10537;SDS011;5317;49.048;8.468;2023-02-28T13:54:56;7.90;;;6.97;;
10537;SDS011;5317;49.048;8.468;2023-02-28T13:57:54;8.03;;;7.30;;
10537;SDS011;5317;49.048;8.468;2023-02-28T14:00:34;8.20;;;7.40;;
10537;SDS011;5317;49.048;8.468;2023-02-28T14:03:15;7.47;;;6.77;;
10537;SDS011;5317;49.048;8.468;2023-02-28T14:06:10;8.47;;;7.37;;
10537;SDS011;5317;49.048;8.468;2023-02-28T14:08:45;8.43;;;7.27;;
10537;SDS011;5317;49.048;8.468;2023-02-28T14:11:25;8.07;;;7.27;;
10537;SDS011;5317;49.048;8.468;2023-02-28T14:13:54;8.20;;;7.40;;
10537;SDS011;5317;49.048;8.468;2023-02-28T14:16:35;8.40;;;7.10;;
10537;SDS011;5317;49.048;8.468;2023-02-28T14:19:09;7.70;;;6.90;;
10537;SDS011;5317;49.048;8.468;2023-02-28T14:21:39;7.93;;;7.17;;
10537;SDS011;5317;49.048;8.468;2023-02-28T14:27:29;7.90;;;7.07;;
10537;SDS011;5317;49.048;8.468;2023-02-28T14:30:14;7.60;;;6.87;;
10537;SDS011;5317;49.048;8.468;2023-02-28T14:33:09;7.37;;;6.77;;
10537;SDS011;5317;49.048;8.468;2023-02-28T14:35:50;8.40;;;7.73;;
10537;SDS011;5317;49.048;8.468;2023-02-28T14:38:27;7.87;;;7.10;;
10537;SDS011;5317;49.048;8.468;2023-02-28T14:40:56;7.40;;;6.80;;
10537;SDS011;5317;49.048;8.468;2023-02-28T14:43:27;8.17;;;7.47;;
10537;SDS011;5317;49.048;8.468;2023-02-28T14:45:55;8.53;;;7.73;;
10537;SDS011;5317;49.048;8.468;2023-02-28T14:48:27;8.30;;;7.50;;
10537;SDS011;5317;49.048;8.468;2023-02-28T14:50:55;7.97;;;7.27;;
10537;SDS011;5317;49.048;8.468;2023-02-28T14:53:25;8.50;;;7.70;;
10537;SDS011;5317;49.048;8.468;2023-02-28T14:55:54;7.37;;;6.67;;
10537;SDS011;5317;49.048;8.468;2023-02-28T14:58:22;7.83;;;7.13;;
10537;SDS011;5317;49.048;8.468;2023-02-28T15:00:51;9.60;;;7.40;;
10537;SDS011;5317;49.048;8.468;2023-02-28T15:03:21;7.80;;;7.20;;
10537;SDS011;5317;49.048;8.468;2023-02-28T15:05:54;7.20;;;6.57;;
10537;SDS011;5317;49.048;8.468;2023-02-28T15:08:24;7.37;;;6.77;;
10537;SDS011;5317;49.048;8.468;2023-02-28T15:10:54;8.07;;;7.37;;
10537;SDS011;5317;49.048;8.468;2023-02-28T15:13:26;8.10;;;7.43;;
10537;SDS011;5317;49.048;8.468;2023-02-28T15:16:02;8.53;;;7.73;;
10537;SDS011;5317;49.048;8.468;2023-02-28T15:18:32;8.27;;;7.47;;
10537;SDS011;5317;49.048;8.468;2023-02-28T15:21:11;7.50;;;6.80;;
10537;SDS011;5317;49.048;8.468;2023-02-28T15:23:39;8.57;;;7.83;;
10537;SDS011;5317;49.048;8.468;2023-02-28T15:26:10;8.50;;;7.70;;
10537;SDS011;5317;49.048;8.468;2023-02-28T15:28:40;8.30;;;7.60;;
10537;SDS011;5317;49.048;8.468;2023-02-28T15:31:17;8.13;;;7.33;;
10537;SDS011;5317;49.048;8.468;2023-02-28T15:33:51;8.40;;;7.60;;
10537;SDS011;5317;49.048;8.468;2023-02-28T15:36:23;8.57;;;7.77;;
10537;SDS011;5317;49.048;8.468;2023-02-28T15:38:58;9.10;;;8.20;;
10537;SDS011;5317;49.048;8.468;2023-02-28T15:41:27;8.17;;;7.23;;
10537;SDS011;5317;49.048;8.468;2023-02-28T15:44:14;7.77;;;7.03;;
10537;SDS011;5317;49.048;8.468;2023-02-28T15:46:56;9.20;;;7.60;;
10537;SDS011;5317;49.048;8.468;2023-02-28T15:49:26;8.40;;;7.70;;
10537;SDS011;5317;49.048;8.468;2023-02-28T15:51:57;8.07;;;7.30;;
10537;SDS011;5317;49.048;8.468;2023-02-28T15:54:27;8.53;;;7.73;;